sensor_id;sensor_type;location;lat;lon;timestamp;temperature;humidity
16271;DHT22;8243;49.048;8.396;2022-08-04T00:00:04;23.50;27.30
16271;DHT22;8243;49.048;8.396;2022-08-04T00:02:42;23.50;27.60
16271;DHT22;8243;49.048;8.396;2022-08-04T00:05:16;23.50;28.00
16271;DHT22;8243;49.048;8.396;2022-08-04T00:07:51;23.50;27.50
16271;DHT22;8243;49.048;8.396;2022-08-04T00:10:21;23.60;26.60
16271;DHT22;8243;49.048;8.396;2022-08-04T00:12:50;23.70;25.90
16271;DHT22;8243;49.048;8.396;2022-08-04T00:15:16;23.90;25.40
16271;DHT22;8243;49.048;8.396;2022-08-04T00:17:57;23.90;24.90
16271;DHT22;8243;49.048;8.396;2022-08-04T00:20:28;24.00;24.50
16271;DHT22;8243;49.048;8.396;2022-08-04T00:22:55;24.00;24.50
16271;DHT22;8243;49.048;8.396;2022-08-04T00:25:22;24.00;24.20
16271;DHT22;8243;49.048;8.396;2022-08-04T00:27:48;24.00;24.20
16271;DHT22;8243;49.048;8.396;2022-08-04T00:30:14;24.00;23.90
16271;DHT22;8243;49.048;8.396;2022-08-04T00:32:40;24.00;23.90
16271;DHT22;8243;49.048;8.396;2022-08-04T00:35:09;24.00;23.60
16271;DHT22;8243;49.048;8.396;2022-08-04T00:37:37;24.00;23.60
16271;DHT22;8243;49.048;8.396;2022-08-04T00:40:35;24.00;23.70
16271;DHT22;8243;49.048;8.396;2022-08-04T00:43:25;24.00;23.40
16271;DHT22;8243;49.048;8.396;2022-08-04T00:46:16;23.90;24.10
16271;DHT22;8243;49.048;8.396;2022-08-04T00:49:14;23.80;24.30
16271;DHT22;8243;49.048;8.396;2022-08-04T00:52:06;23.60;24.80
16271;DHT22;8243;49.048;8.396;2022-08-04T00:54:59;23.50;24.40
16271;DHT22;8243;49.048;8.396;2022-08-04T01:01:10;23.60;24.40
16271;DHT22;8243;49.048;8.396;2022-08-04T01:03:49;23.60;24.20
16271;DHT22;8243;49.048;8.396;2022-08-04T01:09:43;23.60;24.20
16271;DHT22;8243;49.048;8.396;2022-08-04T01:18:03;23.60;24.20
16271;DHT22;8243;49.048;8.396;2022-08-04T01:26:41;23.40;24.80
16271;DHT22;8243;49.048;8.396;2022-08-04T01:29:09;23.30;25.00
16271;DHT22;8243;49.048;8.396;2022-08-04T01:34:21;23.20;25.40
16271;DHT22;8243;49.048;8.396;2022-08-04T01:36:58;23.20;26.60
16271;DHT22;8243;49.048;8.396;2022-08-04T01:39:33;23.10;27.30
16271;DHT22;8243;49.048;8.396;2022-08-04T01:42:05;22.90;29.00
16271;DHT22;8243;49.048;8.396;2022-08-04T01:44:32;22.80;29.40
16271;DHT22;8243;49.048;8.396;2022-08-04T01:47:00;22.70;29.90
16271;DHT22;8243;49.048;8.396;2022-08-04T01:49:28;22.70;30.70
16271;DHT22;8243;49.048;8.396;2022-08-04T01:51:55;22.50;31.40
16271;DHT22;8243;49.048;8.396;2022-08-04T01:54:22;22.40;32.40
16271;DHT22;8243;49.048;8.396;2022-08-04T01:56:49;22.50;32.70
16271;DHT22;8243;49.048;8.396;2022-08-04T01:59:18;22.30;33.60
16271;DHT22;8243;49.048;8.396;2022-08-04T02:01:44;22.20;34.00
16271;DHT22;8243;49.048;8.396;2022-08-04T02:04:27;22.20;33.70
16271;DHT22;8243;49.048;8.396;2022-08-04T02:07:06;22.10;34.80
16271;DHT22;8243;49.048;8.396;2022-08-04T02:12:41;22.00;35.20
16271;DHT22;8243;49.048;8.396;2022-08-04T02:20:43;21.70;36.60
16271;DHT22;8243;49.048;8.396;2022-08-04T02:23:15;21.70;37.10
16271;DHT22;8243;49.048;8.396;2022-08-04T02:25:51;21.60;36.90
16271;DHT22;8243;49.048;8.396;2022-08-04T02:33:37;21.40;39.10
16271;DHT22;8243;49.048;8.396;2022-08-04T02:36:04;21.40;39.20
16271;DHT22;8243;49.048;8.396;2022-08-04T02:41:16;21.40;40.30
16271;DHT22;8243;49.048;8.396;2022-08-04T02:43:43;21.30;41.00
16271;DHT22;8243;49.048;8.396;2022-08-04T02:46:12;21.30;41.30
16271;DHT22;8243;49.048;8.396;2022-08-04T02:48:39;21.20;42.10
16271;DHT22;8243;49.048;8.396;2022-08-04T02:51:08;21.20;42.10
16271;DHT22;8243;49.048;8.396;2022-08-04T02:53:36;21.20;42.40
16271;DHT22;8243;49.048;8.396;2022-08-04T02:56:02;21.20;42.10
16271;DHT22;8243;49.048;8.396;2022-08-04T02:58:30;21.10;42.20
16271;DHT22;8243;49.048;8.396;2022-08-04T03:00:58;21.10;42.60
16271;DHT22;8243;49.048;8.396;2022-08-04T03:14:52;20.70;46.40
16271;DHT22;8243;49.048;8.396;2022-08-04T03:26:09;20.30;49.60
16271;DHT22;8243;49.048;8.396;2022-08-04T03:52:11;20.20;54.20
16271;DHT22;8243;49.048;8.396;2022-08-04T04:00:19;20.00;53.40
16271;DHT22;8243;49.048;8.396;2022-08-04T04:08:53;20.10;54.90
16271;DHT22;8243;49.048;8.396;2022-08-04T04:14:22;20.00;55.60
16271;DHT22;8243;49.048;8.396;2022-08-04T04:17:19;20.10;55.80
16271;DHT22;8243;49.048;8.396;2022-08-04T04:33:46;20.60;53.70
16271;DHT22;8243;49.048;8.396;2022-08-04T04:42:31;22.60;43.20
16271;DHT22;8243;49.048;8.396;2022-08-04T04:45:09;23.50;39.10
16271;DHT22;8243;49.048;8.396;2022-08-04T04:47:56;24.40;34.30
16271;DHT22;8243;49.048;8.396;2022-08-04T04:50:46;25.00;30.00
16271;DHT22;8243;49.048;8.396;2022-08-04T04:53:28;25.60;26.60
16271;DHT22;8243;49.048;8.396;2022-08-04T04:58:44;26.70;22.20
16271;DHT22;8243;49.048;8.396;2022-08-04T05:01:33;27.20;20.30
16271;DHT22;8243;49.048;8.396;2022-08-04T05:04:43;27.50;19.10
16271;DHT22;8243;49.048;8.396;2022-08-04T05:15:55;29.40;14.10
16271;DHT22;8243;49.048;8.396;2022-08-04T05:18:25;29.70;13.30
16271;DHT22;8243;49.048;8.396;2022-08-04T05:21:55;30.10;12.50
16271;DHT22;8243;49.048;8.396;2022-08-04T05:23:57;30.20;12.00
16271;DHT22;8243;49.048;8.396;2022-08-04T05:26:29;30.70;11.40
16271;DHT22;8243;49.048;8.396;2022-08-04T05:28:56;31.00;11.30
16271;DHT22;8243;49.048;8.396;2022-08-04T05:31:38;31.20;11.00
16271;DHT22;8243;49.048;8.396;2022-08-04T05:34:14;31.10;10.90
16271;DHT22;8243;49.048;8.396;2022-08-04T05:36:47;31.70;10.30
16271;DHT22;8243;49.048;8.396;2022-08-04T05:39:19;32.10;9.90
16271;DHT22;8243;49.048;8.396;2022-08-04T05:41:47;32.50;9.20
16271;DHT22;8243;49.048;8.396;2022-08-04T05:44:15;32.70;9.00
16271;DHT22;8243;49.048;8.396;2022-08-04T05:46:42;33.10;8.50
16271;DHT22;8243;49.048;8.396;2022-08-04T05:49:10;33.40;8.20
16271;DHT22;8243;49.048;8.396;2022-08-04T05:51:36;33.60;7.70
16271;DHT22;8243;49.048;8.396;2022-08-04T05:54:02;33.90;7.30
16271;DHT22;8243;49.048;8.396;2022-08-04T05:56:30;33.90;7.40
16271;DHT22;8243;49.048;8.396;2022-08-04T05:58:59;33.80;7.30
16271;DHT22;8243;49.048;8.396;2022-08-04T06:01:25;33.80;7.50
16271;DHT22;8243;49.048;8.396;2022-08-04T06:03:54;33.90;7.80
16271;DHT22;8243;49.048;8.396;2022-08-04T06:06:21;34.30;7.20
16271;DHT22;8243;49.048;8.396;2022-08-04T06:08:47;34.70;6.30
16271;DHT22;8243;49.048;8.396;2022-08-04T06:11:13;34.80;6.30
16271;DHT22;8243;49.048;8.396;2022-08-04T06:13:49;34.80;6.10
16271;DHT22;8243;49.048;8.396;2022-08-04T06:16:20;34.90;5.60
16271;DHT22;8243;49.048;8.396;2022-08-04T06:18:48;34.70;5.30
16271;DHT22;8243;49.048;8.396;2022-08-04T06:21:20;34.70;6.00
16271;DHT22;8243;49.048;8.396;2022-08-04T06:23:48;35.00;4.90
16271;DHT22;8243;49.048;8.396;2022-08-04T06:26:14;35.30;5.00
16271;DHT22;8243;49.048;8.396;2022-08-04T06:28:46;35.40;5.00
16271;DHT22;8243;49.048;8.396;2022-08-04T06:31:14;35.60;4.50
16271;DHT22;8243;49.048;8.396;2022-08-04T06:33:48;36.00;3.90
16271;DHT22;8243;49.048;8.396;2022-08-04T06:36:15;36.00;3.40
16271;DHT22;8243;49.048;8.396;2022-08-04T06:38:41;35.50;3.80
16271;DHT22;8243;49.048;8.396;2022-08-04T06:41:08;35.90;3.80
16271;DHT22;8243;49.048;8.396;2022-08-04T06:43:35;36.40;3.30
16271;DHT22;8243;49.048;8.396;2022-08-04T06:46:02;36.90;3.10
16271;DHT22;8243;49.048;8.396;2022-08-04T06:48:30;36.60;2.40
16271;DHT22;8243;49.048;8.396;2022-08-04T06:50:57;37.10;2.20
16271;DHT22;8243;49.048;8.396;2022-08-04T06:53:24;36.90;2.10
16271;DHT22;8243;49.048;8.396;2022-08-04T06:55:50;37.20;2.80
16271;DHT22;8243;49.048;8.396;2022-08-04T06:58:18;37.10;1.90
16271;DHT22;8243;49.048;8.396;2022-08-04T07:00:45;37.60;1.60
16271;DHT22;8243;49.048;8.396;2022-08-04T07:03:13;37.30;1.60
16271;DHT22;8243;49.048;8.396;2022-08-04T07:05:40;37.70;1.50
16271;DHT22;8243;49.048;8.396;2022-08-04T07:08:09;37.90;1.00
16271;DHT22;8243;49.048;8.396;2022-08-04T07:10:35;37.80;1.00
16271;DHT22;8243;49.048;8.396;2022-08-04T07:13:02;37.20;1.00
16271;DHT22;8243;49.048;8.396;2022-08-04T07:15:28;38.10;1.00
16271;DHT22;8243;49.048;8.396;2022-08-04T07:17:55;38.10;1.00
16271;DHT22;8243;49.048;8.396;2022-08-04T07:20:27;37.90;1.00
16271;DHT22;8243;49.048;8.396;2022-08-04T07:22:53;37.90;1.00
16271;DHT22;8243;49.048;8.396;2022-08-04T07:25:19;38.10;1.00
16271;DHT22;8243;49.048;8.396;2022-08-04T07:27:46;38.30;1.00
16271;DHT22;8243;49.048;8.396;2022-08-04T07:30:13;37.50;1.00
16271;DHT22;8243;49.048;8.396;2022-08-04T07:32:39;37.30;1.00
16271;DHT22;8243;49.048;8.396;2022-08-04T07:35:07;37.80;1.00
16271;DHT22;8243;49.048;8.396;2022-08-04T07:37:34;38.40;1.00
16271;DHT22;8243;49.048;8.396;2022-08-04T07:40:00;38.20;1.00
16271;DHT22;8243;49.048;8.396;2022-08-04T07:42:26;38.10;1.00
16271;DHT22;8243;49.048;8.396;2022-08-04T07:44:52;37.80;1.00
16271;DHT22;8243;49.048;8.396;2022-08-04T07:47:18;38.00;1.00
16271;DHT22;8243;49.048;8.396;2022-08-04T07:49:43;38.20;1.00
16271;DHT22;8243;49.048;8.396;2022-08-04T07:52:09;38.00;1.00
16271;DHT22;8243;49.048;8.396;2022-08-04T07:54:35;37.90;1.00
16271;DHT22;8243;49.048;8.396;2022-08-04T07:57:02;37.30;1.00
16271;DHT22;8243;49.048;8.396;2022-08-04T07:59:28;36.80;1.00
16271;DHT22;8243;49.048;8.396;2022-08-04T08:01:54;36.60;1.00
16271;DHT22;8243;49.048;8.396;2022-08-04T08:04:23;36.50;1.00
16271;DHT22;8243;49.048;8.396;2022-08-04T08:06:50;36.70;1.00
16271;DHT22;8243;49.048;8.396;2022-08-04T08:09:17;37.30;1.00
16271;DHT22;8243;49.048;8.396;2022-08-04T08:11:46;37.30;1.00
16271;DHT22;8243;49.048;8.396;2022-08-04T08:14:12;37.60;1.00
16271;DHT22;8243;49.048;8.396;2022-08-04T08:16:38;38.10;1.00
16271;DHT22;8243;49.048;8.396;2022-08-04T08:19:05;38.20;1.00
16271;DHT22;8243;49.048;8.396;2022-08-04T08:21:33;38.40;1.00
16271;DHT22;8243;49.048;8.396;2022-08-04T08:24:00;38.70;1.00
16271;DHT22;8243;49.048;8.396;2022-08-04T08:26:26;38.40;1.00
16271;DHT22;8243;49.048;8.396;2022-08-04T08:28:52;38.00;1.00
16271;DHT22;8243;49.048;8.396;2022-08-04T08:31:18;38.80;1.00
16271;DHT22;8243;49.048;8.396;2022-08-04T08:33:44;38.70;1.00
16271;DHT22;8243;49.048;8.396;2022-08-04T08:36:35;38.50;1.00
16271;DHT22;8243;49.048;8.396;2022-08-04T08:39:06;38.70;1.00
16271;DHT22;8243;49.048;8.396;2022-08-04T08:47:05;38.50;1.00
16271;DHT22;8243;49.048;8.396;2022-08-04T08:55:19;38.80;1.00
16271;DHT22;8243;49.048;8.396;2022-08-04T09:00:46;39.20;1.00
16271;DHT22;8243;49.048;8.396;2022-08-04T09:03:53;39.80;1.00
16271;DHT22;8243;49.048;8.396;2022-08-04T09:12:12;39.60;1.00
16271;DHT22;8243;49.048;8.396;2022-08-04T09:15:10;39.50;1.00
16271;DHT22;8243;49.048;8.396;2022-08-04T09:17:51;39.50;1.00
16271;DHT22;8243;49.048;8.396;2022-08-04T09:20:27;39.60;1.00
16271;DHT22;8243;49.048;8.396;2022-08-04T09:29:06;41.00;1.00
16271;DHT22;8243;49.048;8.396;2022-08-04T09:34:16;41.90;1.00
16271;DHT22;8243;49.048;8.396;2022-08-04T09:36:55;41.80;1.00
16271;DHT22;8243;49.048;8.396;2022-08-04T09:39:36;41.40;1.00
16271;DHT22;8243;49.048;8.396;2022-08-04T09:42:32;40.90;1.00
16271;DHT22;8243;49.048;8.396;2022-08-04T09:47:38;41.50;1.00
16271;DHT22;8243;49.048;8.396;2022-08-04T09:50:33;40.90;1.00
16271;DHT22;8243;49.048;8.396;2022-08-04T09:56:08;40.90;1.00
16271;DHT22;8243;49.048;8.396;2022-08-04T09:58:56;41.20;1.00
16271;DHT22;8243;49.048;8.396;2022-08-04T10:01:31;40.90;1.00
16271;DHT22;8243;49.048;8.396;2022-08-04T10:04:00;40.40;1.00
16271;DHT22;8243;49.048;8.396;2022-08-04T10:09:17;40.50;1.00
16271;DHT22;8243;49.048;8.396;2022-08-04T10:12:02;40.60;1.00
16271;DHT22;8243;49.048;8.396;2022-08-04T10:18:06;40.20;1.00
16271;DHT22;8243;49.048;8.396;2022-08-04T10:23:37;39.80;1.00
16271;DHT22;8243;49.048;8.396;2022-08-04T10:26:10;39.90;1.00
16271;DHT22;8243;49.048;8.396;2022-08-04T10:29:03;39.70;1.00
16271;DHT22;8243;49.048;8.396;2022-08-04T10:31:34;40.00;1.00
16271;DHT22;8243;49.048;8.396;2022-08-04T10:36:48;39.60;1.00
16271;DHT22;8243;49.048;8.396;2022-08-04T10:39:18;39.90;1.00
16271;DHT22;8243;49.048;8.396;2022-08-04T10:41:57;40.00;1.00
16271;DHT22;8243;49.048;8.396;2022-08-04T10:44:33;39.60;1.00
16271;DHT22;8243;49.048;8.396;2022-08-04T10:47:06;39.70;1.00
16271;DHT22;8243;49.048;8.396;2022-08-04T10:49:56;39.60;1.00
16271;DHT22;8243;49.048;8.396;2022-08-04T10:52:59;39.10;1.00
16271;DHT22;8243;49.048;8.396;2022-08-04T10:55:37;39.00;1.00
16271;DHT22;8243;49.048;8.396;2022-08-04T10:58:08;39.20;1.00
16271;DHT22;8243;49.048;8.396;2022-08-04T11:00:40;39.10;1.00
16271;DHT22;8243;49.048;8.396;2022-08-04T11:03:23;38.70;1.00
16271;DHT22;8243;49.048;8.396;2022-08-04T11:05:57;39.00;1.00
16271;DHT22;8243;49.048;8.396;2022-08-04T11:08:53;38.60;1.00
16271;DHT22;8243;49.048;8.396;2022-08-04T11:16:50;38.00;1.00
16271;DHT22;8243;49.048;8.396;2022-08-04T11:22:13;38.00;1.00
16271;DHT22;8243;49.048;8.396;2022-08-04T11:24:53;37.90;1.00
16271;DHT22;8243;49.048;8.396;2022-08-04T11:30:19;38.30;1.00
16271;DHT22;8243;49.048;8.396;2022-08-04T11:35:49;38.20;1.00
16271;DHT22;8243;49.048;8.396;2022-08-04T11:38:24;37.50;1.00
16271;DHT22;8243;49.048;8.396;2022-08-04T11:40:57;37.70;1.00
16271;DHT22;8243;49.048;8.396;2022-08-04T11:46:14;37.30;1.00
16271;DHT22;8243;49.048;8.396;2022-08-04T11:48:57;37.20;1.00
16271;DHT22;8243;49.048;8.396;2022-08-04T11:51:26;37.40;1.00
16271;DHT22;8243;49.048;8.396;2022-08-04T11:53:53;37.20;1.00
16271;DHT22;8243;49.048;8.396;2022-08-04T11:56:20;37.50;1.00
16271;DHT22;8243;49.048;8.396;2022-08-04T11:58:46;37.70;1.00
16271;DHT22;8243;49.048;8.396;2022-08-04T12:04:54;38.00;1.00
16271;DHT22;8243;49.048;8.396;2022-08-04T12:07:16;37.90;1.00
16271;DHT22;8243;49.048;8.396;2022-08-04T12:10:19;38.40;1.00
16271;DHT22;8243;49.048;8.396;2022-08-04T12:12:57;38.90;1.00
16271;DHT22;8243;49.048;8.396;2022-08-04T12:15:30;38.80;1.00
16271;DHT22;8243;49.048;8.396;2022-08-04T12:20:28;39.10;1.00
16271;DHT22;8243;49.048;8.396;2022-08-04T12:22:54;39.30;1.00
16271;DHT22;8243;49.048;8.396;2022-08-04T12:25:27;39.60;1.00
16271;DHT22;8243;49.048;8.396;2022-08-04T12:27:58;39.60;1.00
16271;DHT22;8243;49.048;8.396;2022-08-04T12:30:26;39.60;1.00
16271;DHT22;8243;49.048;8.396;2022-08-04T12:33:03;39.80;1.00
16271;DHT22;8243;49.048;8.396;2022-08-04T12:38:19;39.80;1.00
16271;DHT22;8243;49.048;8.396;2022-08-04T12:40:49;39.80;1.00
16271;DHT22;8243;49.048;8.396;2022-08-04T12:43:37;39.50;1.00
16271;DHT22;8243;49.048;8.396;2022-08-04T12:46:05;39.30;1.00
16271;DHT22;8243;49.048;8.396;2022-08-04T12:48:34;39.50;1.00
16271;DHT22;8243;49.048;8.396;2022-08-04T12:51:00;39.00;1.00
16271;DHT22;8243;49.048;8.396;2022-08-04T12:53:37;39.20;1.00
16271;DHT22;8243;49.048;8.396;2022-08-04T12:56:05;39.10;1.00
16271;DHT22;8243;49.048;8.396;2022-08-04T12:58:48;39.20;1.00
16271;DHT22;8243;49.048;8.396;2022-08-04T13:01:19;39.20;1.00
16271;DHT22;8243;49.048;8.396;2022-08-04T13:03:57;39.30;1.00
16271;DHT22;8243;49.048;8.396;2022-08-04T13:06:28;39.50;1.00
16271;DHT22;8243;49.048;8.396;2022-08-04T13:08:54;39.50;1.00
16271;DHT22;8243;49.048;8.396;2022-08-04T13:11:26;39.60;1.00
16271;DHT22;8243;49.048;8.396;2022-08-04T13:13:54;39.40;1.00
16271;DHT22;8243;49.048;8.396;2022-08-04T13:16:29;39.30;1.00
16271;DHT22;8243;49.048;8.396;2022-08-04T13:18:55;39.60;1.00
16271;DHT22;8243;49.048;8.396;2022-08-04T13:21:23;39.60;1.00
16271;DHT22;8243;49.048;8.396;2022-08-04T13:23:52;39.60;1.00
16271;DHT22;8243;49.048;8.396;2022-08-04T13:26:18;39.50;1.00
16271;DHT22;8243;49.048;8.396;2022-08-04T13:28:52;39.50;1.00
16271;DHT22;8243;49.048;8.396;2022-08-04T13:31:20;38.90;1.00
16271;DHT22;8243;49.048;8.396;2022-08-04T13:33:51;38.60;1.00
16271;DHT22;8243;49.048;8.396;2022-08-04T13:36:22;38.60;1.00
16271;DHT22;8243;49.048;8.396;2022-08-04T13:38:52;38.90;1.00
16271;DHT22;8243;49.048;8.396;2022-08-04T13:41:18;39.10;1.00
16271;DHT22;8243;49.048;8.396;2022-08-04T13:43:51;39.10;1.00
16271;DHT22;8243;49.048;8.396;2022-08-04T13:46:22;39.30;1.00
16271;DHT22;8243;49.048;8.396;2022-08-04T13:48:49;39.50;1.00
16271;DHT22;8243;49.048;8.396;2022-08-04T13:51:17;39.50;1.00
16271;DHT22;8243;49.048;8.396;2022-08-04T13:53:44;39.50;1.00
16271;DHT22;8243;49.048;8.396;2022-08-04T13:56:13;39.70;1.00
16271;DHT22;8243;49.048;8.396;2022-08-04T13:58:44;39.50;1.00
16271;DHT22;8243;49.048;8.396;2022-08-04T14:01:23;39.20;1.00
16271;DHT22;8243;49.048;8.396;2022-08-04T14:06:27;39.70;1.00
16271;DHT22;8243;49.048;8.396;2022-08-04T14:08:58;39.20;1.00
16271;DHT22;8243;49.048;8.396;2022-08-04T14:11:36;39.00;1.00
16271;DHT22;8243;49.048;8.396;2022-08-04T14:14:26;39.00;1.00
16271;DHT22;8243;49.048;8.396;2022-08-04T14:22:27;39.60;1.00
16271;DHT22;8243;49.048;8.396;2022-08-04T14:25:11;39.70;1.00
16271;DHT22;8243;49.048;8.396;2022-08-04T14:27:41;39.80;1.00
16271;DHT22;8243;49.048;8.396;2022-08-04T14:35:30;40.00;1.00
16271;DHT22;8243;49.048;8.396;2022-08-04T14:38:10;39.90;1.00
16271;DHT22;8243;49.048;8.396;2022-08-04T14:40:58;40.00;1.00
16271;DHT22;8243;49.048;8.396;2022-08-04T14:43:24;39.90;1.00
16271;DHT22;8243;49.048;8.396;2022-08-04T14:46:03;40.00;1.00
16271;DHT22;8243;49.048;8.396;2022-08-04T14:48:28;39.90;1.00
16271;DHT22;8243;49.048;8.396;2022-08-04T14:50:54;39.90;1.00
16271;DHT22;8243;49.048;8.396;2022-08-04T14:53:22;39.90;1.00
16271;DHT22;8243;49.048;8.396;2022-08-04T14:55:55;39.90;1.00
16271;DHT22;8243;49.048;8.396;2022-08-04T14:58:28;40.00;1.00
16271;DHT22;8243;49.048;8.396;2022-08-04T15:01:00;39.50;1.00
16271;DHT22;8243;49.048;8.396;2022-08-04T15:03:31;39.10;1.00
16271;DHT22;8243;49.048;8.396;2022-08-04T15:05:58;39.30;1.00
16271;DHT22;8243;49.048;8.396;2022-08-04T15:08:25;39.50;1.00
16271;DHT22;8243;49.048;8.396;2022-08-04T15:10:52;39.60;1.00
16271;DHT22;8243;49.048;8.396;2022-08-04T15:13:26;39.50;1.00
16271;DHT22;8243;49.048;8.396;2022-08-04T15:15:52;39.30;1.00
16271;DHT22;8243;49.048;8.396;2022-08-04T15:18:18;38.70;1.00
16271;DHT22;8243;49.048;8.396;2022-08-04T15:20:51;38.70;1.00
16271;DHT22;8243;49.048;8.396;2022-08-04T15:23:17;38.80;1.00
16271;DHT22;8243;49.048;8.396;2022-08-04T15:25:46;38.90;1.00
16271;DHT22;8243;49.048;8.396;2022-08-04T15:28:18;38.90;1.00
16271;DHT22;8243;49.048;8.396;2022-08-04T15:30:45;39.10;1.00
16271;DHT22;8243;49.048;8.396;2022-08-04T15:33:13;39.10;1.00
16271;DHT22;8243;49.048;8.396;2022-08-04T15:35:42;38.80;1.00
16271;DHT22;8243;49.048;8.396;2022-08-04T15:38:21;38.80;1.00
16271;DHT22;8243;49.048;8.396;2022-08-04T15:41:05;38.70;1.00
16271;DHT22;8243;49.048;8.396;2022-08-04T15:46:09;39.10;1.00
16271;DHT22;8243;49.048;8.396;2022-08-04T15:48:37;39.20;1.00
16271;DHT22;8243;49.048;8.396;2022-08-04T15:51:08;39.30;1.00
16271;DHT22;8243;49.048;8.396;2022-08-04T15:58:51;39.10;1.00
16271;DHT22;8243;49.048;8.396;2022-08-04T16:01:17;39.10;1.00
16271;DHT22;8243;49.048;8.396;2022-08-04T16:03:45;38.90;1.00
16271;DHT22;8243;49.048;8.396;2022-08-04T16:19:08;38.20;1.00
16271;DHT22;8243;49.048;8.396;2022-08-04T16:24:17;38.10;1.00
16271;DHT22;8243;49.048;8.396;2022-08-04T16:26:46;38.20;1.00
16271;DHT22;8243;49.048;8.396;2022-08-04T16:29:29;38.40;1.00
16271;DHT22;8243;49.048;8.396;2022-08-04T16:37:27;38.40;1.00
16271;DHT22;8243;49.048;8.396;2022-08-04T16:40:29;38.40;1.00
16271;DHT22;8243;49.048;8.396;2022-08-04T16:43:01;38.40;1.00
16271;DHT22;8243;49.048;8.396;2022-08-04T16:48:16;38.20;1.00
16271;DHT22;8243;49.048;8.396;2022-08-04T16:50:50;38.10;1.00
16271;DHT22;8243;49.048;8.396;2022-08-04T16:53:17;38.00;1.00
16271;DHT22;8243;49.048;8.396;2022-08-04T16:55:48;38.00;1.00
16271;DHT22;8243;49.048;8.396;2022-08-04T16:58:16;37.90;1.00
16271;DHT22;8243;49.048;8.396;2022-08-04T17:00:42;37.90;1.00
16271;DHT22;8243;49.048;8.396;2022-08-04T17:03:17;37.90;1.00
16271;DHT22;8243;49.048;8.396;2022-08-04T17:06:04;37.80;1.00
16271;DHT22;8243;49.048;8.396;2022-08-04T17:08:34;37.60;1.00
16271;DHT22;8243;49.048;8.396;2022-08-04T17:11:02;37.50;1.00
16271;DHT22;8243;49.048;8.396;2022-08-04T17:13:33;37.40;1.00
16271;DHT22;8243;49.048;8.396;2022-08-04T17:16:04;37.50;1.00
16271;DHT22;8243;49.048;8.396;2022-08-04T17:18:33;37.30;1.00
16271;DHT22;8243;49.048;8.396;2022-08-04T17:21:07;37.40;1.00
16271;DHT22;8243;49.048;8.396;2022-08-04T17:23:35;37.30;1.00
16271;DHT22;8243;49.048;8.396;2022-08-04T17:26:09;37.20;1.00
16271;DHT22;8243;49.048;8.396;2022-08-04T17:28:35;37.20;1.00
16271;DHT22;8243;49.048;8.396;2022-08-04T17:31:03;36.90;1.00
16271;DHT22;8243;49.048;8.396;2022-08-04T17:33:29;36.90;1.00
16271;DHT22;8243;49.048;8.396;2022-08-04T17:35:57;36.80;1.00
16271;DHT22;8243;49.048;8.396;2022-08-04T17:38:54;36.80;1.00
16271;DHT22;8243;49.048;8.396;2022-08-04T17:41:25;36.80;1.00
16271;DHT22;8243;49.048;8.396;2022-08-04T17:43:59;36.80;1.00
16271;DHT22;8243;49.048;8.396;2022-08-04T17:46:36;36.80;1.00
16271;DHT22;8243;49.048;8.396;2022-08-04T17:49:13;36.70;1.00
16271;DHT22;8243;49.048;8.396;2022-08-04T17:51:57;36.60;1.00
16271;DHT22;8243;49.048;8.396;2022-08-04T17:56:53;36.20;1.00
16271;DHT22;8243;49.048;8.396;2022-08-04T17:59:25;36.00;1.00
16271;DHT22;8243;49.048;8.396;2022-08-04T18:04:30;35.70;1.00
16271;DHT22;8243;49.048;8.396;2022-08-04T18:07:03;35.60;1.00
16271;DHT22;8243;49.048;8.396;2022-08-04T18:09:38;35.50;1.00
16271;DHT22;8243;49.048;8.396;2022-08-04T18:12:20;35.30;1.00
16271;DHT22;8243;49.048;8.396;2022-08-04T18:14:48;35.10;1.00
16271;DHT22;8243;49.048;8.396;2022-08-04T18:17:30;35.00;1.00
16271;DHT22;8243;49.048;8.396;2022-08-04T18:19:57;34.90;1.00
16271;DHT22;8243;49.048;8.396;2022-08-04T18:22:23;34.90;1.00
16271;DHT22;8243;49.048;8.396;2022-08-04T18:24:48;34.70;1.00
16271;DHT22;8243;49.048;8.396;2022-08-04T18:27:17;34.60;1.00
16271;DHT22;8243;49.048;8.396;2022-08-04T18:29:43;34.50;1.00
16271;DHT22;8243;49.048;8.396;2022-08-04T18:32:09;34.50;1.00
16271;DHT22;8243;49.048;8.396;2022-08-04T18:34:37;34.30;1.00
16271;DHT22;8243;49.048;8.396;2022-08-04T18:37:03;34.20;1.00
16271;DHT22;8243;49.048;8.396;2022-08-04T18:39:29;34.00;1.00
16271;DHT22;8243;49.048;8.396;2022-08-04T18:41:55;33.70;1.00
16271;DHT22;8243;49.048;8.396;2022-08-04T18:44:21;33.30;1.00
16271;DHT22;8243;49.048;8.396;2022-08-04T18:46:47;33.10;1.00
16271;DHT22;8243;49.048;8.396;2022-08-04T18:49:13;32.90;1.00
16271;DHT22;8243;49.048;8.396;2022-08-04T18:51:38;32.60;1.50
16271;DHT22;8243;49.048;8.396;2022-08-04T18:54:05;32.40;1.90
16271;DHT22;8243;49.048;8.396;2022-08-04T18:56:32;32.20;3.10
16271;DHT22;8243;49.048;8.396;2022-08-04T18:59:02;32.00;3.30
16271;DHT22;8243;49.048;8.396;2022-08-04T19:01:28;31.80;3.60
16271;DHT22;8243;49.048;8.396;2022-08-04T19:03:54;31.40;4.20
16271;DHT22;8243;49.048;8.396;2022-08-04T19:06:20;31.10;4.40
16271;DHT22;8243;49.048;8.396;2022-08-04T19:08:45;31.00;4.80
16271;DHT22;8243;49.048;8.396;2022-08-04T19:11:11;30.80;4.80
16271;DHT22;8243;49.048;8.396;2022-08-04T19:13:38;30.80;5.10
16271;DHT22;8243;49.048;8.396;2022-08-04T19:16:04;30.60;5.20
16271;DHT22;8243;49.048;8.396;2022-08-04T19:18:29;30.60;5.70
16271;DHT22;8243;49.048;8.396;2022-08-04T19:20:57;30.40;5.90
16271;DHT22;8243;49.048;8.396;2022-08-04T19:23:22;30.30;6.00
16271;DHT22;8243;49.048;8.396;2022-08-04T19:25:49;30.20;6.30
16271;DHT22;8243;49.048;8.396;2022-08-04T19:28:15;30.10;6.90
16271;DHT22;8243;49.048;8.396;2022-08-04T19:30:42;29.90;6.90
16271;DHT22;8243;49.048;8.396;2022-08-04T19:33:08;29.80;6.90
16271;DHT22;8243;49.048;8.396;2022-08-04T19:35:33;29.70;7.30
16271;DHT22;8243;49.048;8.396;2022-08-04T19:37:59;29.60;7.80
16271;DHT22;8243;49.048;8.396;2022-08-04T19:40:25;29.50;7.80
16271;DHT22;8243;49.048;8.396;2022-08-04T19:42:51;29.40;7.90
16271;DHT22;8243;49.048;8.396;2022-08-04T19:45:17;29.20;7.80
16271;DHT22;8243;49.048;8.396;2022-08-04T19:47:43;29.10;8.90
16271;DHT22;8243;49.048;8.396;2022-08-04T19:50:09;29.00;9.20
16271;DHT22;8243;49.048;8.396;2022-08-04T19:52:34;28.90;9.30
16271;DHT22;8243;49.048;8.396;2022-08-04T19:55:00;28.80;9.20
16271;DHT22;8243;49.048;8.396;2022-08-04T19:57:26;28.70;9.70
16271;DHT22;8243;49.048;8.396;2022-08-04T19:59:51;28.70;10.00
16271;DHT22;8243;49.048;8.396;2022-08-04T20:02:17;28.60;10.00
16271;DHT22;8243;49.048;8.396;2022-08-04T20:04:42;28.40;9.90
16271;DHT22;8243;49.048;8.396;2022-08-04T20:07:08;28.30;10.20
16271;DHT22;8243;49.048;8.396;2022-08-04T20:09:34;28.20;10.10
16271;DHT22;8243;49.048;8.396;2022-08-04T20:11:59;28.10;10.60
16271;DHT22;8243;49.048;8.396;2022-08-04T20:14:25;28.10;10.50
16271;DHT22;8243;49.048;8.396;2022-08-04T20:16:52;28.10;10.70
16271;DHT22;8243;49.048;8.396;2022-08-04T20:19:18;28.00;11.00
16271;DHT22;8243;49.048;8.396;2022-08-04T20:21:43;27.90;11.30
16271;DHT22;8243;49.048;8.396;2022-08-04T20:24:09;27.80;11.50
16271;DHT22;8243;49.048;8.396;2022-08-04T20:26:35;27.80;11.30
16271;DHT22;8243;49.048;8.396;2022-08-04T20:29:00;27.70;11.70
16271;DHT22;8243;49.048;8.396;2022-08-04T20:31:26;27.70;11.90
16271;DHT22;8243;49.048;8.396;2022-08-04T20:33:51;27.60;11.10